Sitc Xiamen — 3ELU — position and weather

sailwx.info

Track history (hours):
 
Tides and Currents Weather Stations Pressure Air Temp Water Temp Dewpoint Dewpoint Depression Visibility Wind Speed Wind Dir Waves Ship Positions

Sitc Xiamen

Last reported at 2018-May-22 11:39 UTC. Time now 2018-May-22 17:41 UTC.
Position N 34°25' E 134°12'.

Length 145 m; draft 6.1 m.

Type: Ship (hazmat cat A). MMSI: 355090000.

Date/timePositionNaut miles runAvg speedWind from/ knotsBaromVisibWave heightAir tempDewpointWater temp
2018-May-22 11:39N 34°25' E 134°12'215.8
2018-May-22 11:30N 34°24' E 134°14'816.0
2018-May-22 11:00N 34°25' E 134°24'816.0
2018-May-22 10:30N 34°28' E 134°33'815.7
2018-May-22 10:00N 34°31' E 134°41'815.7
2018-May-22 09:30N 34°34' E 134°50'815.7
2018-May-22 09:00N 34°37' E 134°59'815.3
2018-May-22 08:30N 34°36' E 135°08'714.1
2018-May-22 08:00N 34°38' E 135°16'2 4.4
2018-May-22 07:30N 34°40' E 135°14'0 0.0
2018-May-22 06:58N 34°40' E 135°14'0 0.0
2018-May-22 06:28N 34°40' E 135°14'0 0.0
2018-May-22 05:58N 34°40' E 135°14'0 0.0
2018-May-22 05:28N 34°40' E 135°14'0 0.0
2018-May-22 04:58N 34°40' E 135°14'0 0.0
2018-May-22 04:22N 34°40' E 135°14'0 0.0
2018-May-22 03:58N 34°40' E 135°14'0 0.2
2018-May-22 03:30N 34°40' E 135°14'2 4.9
2018-May-22 03:00N 34°38' E 135°17'611.7
2018-May-22 02:30N 34°38' E 135°24'1 1.4
2018-May-22 02:00N 34°39' E 135°24'0 0.0
2018-May-22 01:29N 34°39' E 135°24'0 0.0
2018-May-22 00:59N 34°39' E 135°24'0 0.0
2018-May-22 00:11N 34°39' E 135°24'0 0.0
2018-May-21 23:59N 34°39' E 135°24'0 0.0
2018-May-21 23:29N 34°39' E 135°24'0 0.0
2018-May-21 22:53N 34°39' E 135°24'0 0.0
2018-May-21 22:29N 34°39' E 135°24'0 0.0
2018-May-21 21:53N 34°39' E 135°24'0 0.0
2018-May-21 21:29N 34°39' E 135°24'0 0.0
2018-May-21 20:59N 34°39' E 135°24'0 0.0
2018-May-21 20:29N 34°39' E 135°24'0 0.0
2018-May-21 19:59N 34°39' E 135°24'0 0.0
2018-May-21 19:29N 34°39' E 135°24'0 0.0
2018-May-21 18:59N 34°39' E 135°24'0 0.0
2018-May-21 18:29N 34°39' E 135°24'0 0.0
2018-May-21 17:53N 34°39' E 135°24'0 0.0
2018-May-21 17:29N 34°39' E 135°24'0 0.0
2018-May-21 16:59N 34°39' E 135°24'0 0.0
2018-May-21 16:29N 34°39' E 135°24'0 0.0
2018-May-21 15:59N 34°39' E 135°24'0 0.0
2018-May-21 15:29N 34°39' E 135°24'1 1.2
2018-May-21 15:00N 34°39' E 135°24'5 9.7
2018-May-21 14:31N 34°36' E 135°19'816.4
2018-May-21 14:01N 34°35' E 135°09'814.7
2018-May-21 13:28N 34°37' E 134°59'715.8
2018-May-21 13:00N 34°34' E 134°51'816.4
2018-May-21 12:30N 34°31' E 134°42'816.8
2018-May-21 12:01N 34°28' E 134°33'816.7
2018-May-21 11:31N 34°25' E 134°24'70013.9
2018-May-19 09:09N 36°02' E 120°15'310.1
2018-May-19 08:54N 36°00' E 120°13'1 0.9
2018-May-19 08:16N 35°60' E 120°12'0 0.1
2018-May-19 07:56N 35°60' E 120°12'0 0.0
2018-May-19 07:20N 35°60' E 120°12'0 0.0
2018-May-19 06:44N 35°60' E 120°12'0 0.0
2018-May-19 06:29N 35°60' E 120°12'0 0.0
2018-May-19 04:46N 35°60' E 120°12'0 0.0
2018-May-19 04:13N 35°60' E 120°12'0 0.0
2018-May-19 03:16N 35°60' E 120°12'0 0.0
2018-May-19 02:52N 35°60' E 120°12'0 0.0
2018-May-19 02:28N 35°60' E 120°12'0 0.0
2018-May-19 01:55N 35°60' E 120°12'0 0.0
2018-May-19 01:23N 35°60' E 120°12'0 0.0
2018-May-19 00:47N 35°60' E 120°12'0 0.0
2018-May-18 23:52N 35°60' E 120°12'0 0.0
2018-May-18 23:17N 35°60' E 120°12'0 0.1
2018-May-18 22:58N 35°60' E 120°12'2 3.1
2018-May-18 22:16N 36°01' E 120°14'410.9
2018-May-18 21:57N 36°02' E 120°19'912.6
2018-May-18 21:16N 36°00' E 120°29'  
2018-May-15 16:14N 34°24' E 133°54'512.0
2018-May-15 15:48N 34°26' E 134°01'912.9
2018-May-15 15:09N 34°25' E 134°11'214.5
2018-May-15 15:00N 34°25' E 134°13'814.9
2018-May-15 14:30N 34°25' E 134°22'815.2
2018-May-15 14:00N 34°28' E 134°31'815.6
2018-May-15 13:31N 34°31' E 134°39'816.7
2018-May-15 13:00N 34°34' E 134°48'917.4
2018-May-15 12:30N 34°37' E 134°58'816.0
2018-May-15 12:00N 34°36' E 135°08'714.1
2018-May-15 11:30N 34°38' E 135°16'2 4.8
2018-May-15 11:00N 34°40' E 135°14'0 0.0
2018-May-15 10:29N 34°40' E 135°14'0 0.0
2018-May-15 09:59N 34°40' E 135°14'0 0.0
2018-May-15 09:29N 34°40' E 135°14'0 0.0
2018-May-15 08:59N 34°40' E 135°14'0 0.0
2018-May-15 08:29N 34°40' E 135°14'0 0.0
2018-May-15 07:59N 34°40' E 135°14'0 0.0
2018-May-15 07:29N 34°40' E 135°14'0 0.0
2018-May-15 06:59N 34°40' E 135°14'0 0.0
2018-May-15 06:29N 34°40' E 135°14'0 0.0
2018-May-15 05:59N 34°40' E 135°14'0 0.0
2018-May-15 05:29N 34°40' E 135°14'0 0.0
2018-May-15 04:59N 34°40' E 135°14'0 0.0
2018-May-15 04:29N 34°40' E 135°14'0 0.3
2018-May-15 04:00N 34°40' E 135°14'2 5.0
2018-May-15 03:30N 34°38' E 135°17'510.9
2018-May-15 03:01N 34°38' E 135°23'1 2.2
2018-May-15 02:30N 34°39' E 135°24'0 0.0
2018-May-15 01:58N 34°39' E 135°24'0 0.0
2018-May-15 01:28N 34°39' E 135°24'0 0.0
2018-May-15 00:58N 34°39' E 135°24'0 0.0
2018-May-15 00:28N 34°39' E 135°24'0 0.0
2018-May-14 23:58N 34°39' E 135°24'0 0.0
2018-May-14 23:28N 34°39' E 135°24'0 0.0
2018-May-14 22:58N 34°39' E 135°24'0 0.0
2018-May-14 22:28N 34°39' E 135°24'0 0.0
2018-May-14 21:58N 34°39' E 135°24'0 0.0
2018-May-14 21:25N 34°39' E 135°24'0 0.0
2018-May-14 20:58N 34°39' E 135°24'0 0.0
2018-May-14 20:28N 34°39' E 135°24'0 0.0
2018-May-14 19:58N 34°39' E 135°24'0 0.0
2018-May-14 19:28N 34°39' E 135°24'0 0.0
2018-May-14 18:58N 34°39' E 135°24'0 0.0
2018-May-14 18:28N 34°39' E 135°24'0 0.0
2018-May-14 17:58N 34°39' E 135°24'0 0.0
2018-May-14 17:28N 34°39' E 135°24'0 0.0
2018-May-14 16:58N 34°39' E 135°24'0 0.0
2018-May-14 16:28N 34°39' E 135°24'0 0.0
2018-May-14 15:58N 34°39' E 135°24'0 0.0
2018-May-14 15:28N 34°39' E 135°24'0 0.0
2018-May-14 14:58N 34°39' E 135°24'0 0.0
2018-May-14 14:28N 34°39' E 135°24'0 0.0
2018-May-14 13:58N 34°39' E 135°24'0 0.0
2018-May-14 13:28N 34°39' E 135°24'0 0.1
2018-May-14 13:00N 34°39' E 135°24'1 2.4
2018-May-14 12:30N 34°38' E 135°23'5 9.9
2018-May-14 12:00N 34°36' E 135°18'715.0
2018-May-14 11:30N 34°35' E 135°09'713.2
2018-May-14 11:00N 34°37' E 135°01'612.9
2018-May-14 10:30N 34°35' E 134°54'612.8
2018-May-14 10:01N 34°33' E 134°47'714.3
2018-May-14 09:31N 34°30' E 134°39'815.1
2018-May-14 09:00N 34°27' E 134°30'815.1
2018-May-14 08:30N 34°24' E 134°21'8313.0
2018-May-14 02:06N 34°00' E 132°45'114.3
2018-May-14 02:00N 33°59' E 132°44'814.8
2018-May-14 01:30N 33°54' E 132°38'714.8
2018-May-14 01:00N 33°49' E 132°32'1214.8
2018-May-14 00:12N 33°44' E 132°19'314.6
2018-May-14 00:00N 33°43' E 132°15'1314.6
2018-May-13 23:08N 33°43' E 131°60'414.8
2018-May-13 22:51N 33°43' E 131°55'515.1
2018-May-13 22:30N 33°44' E 131°49'715.0
2018-May-13 22:01N 33°46' E 131°40'815.1
2018-May-13 21:31N 33°48' E 131°31'715.0
2018-May-13 21:01N 33°49' E 131°23'714.8
2018-May-13 20:31N 33°51' E 131°14'714.3
2018-May-13 20:01N 33°55' E 131°06'713.9
2018-May-13 19:30N 33°58' E 130°59'612.2
2018-May-13 19:01N 33°55' E 130°53'713.2
2018-May-13 18:30N 34°01' E 130°50'815.4
2018-May-13 18:00N 34°04' E 130°41'815.5
2018-May-13 17:30N 34°03' E 130°32'815.7
2018-May-13 17:00N 34°04' E 130°22'815.6
2018-May-13 16:30N 34°03' E 130°13'815.7
2018-May-13 16:00N 34°03' E 130°03'816.0
2018-May-13 15:30N 34°03' E 129°54'916.2
2018-May-13 14:57N 34°03' E 129°43'1116.2
2018-May-13 14:16N 34°03' E 129°29'416.4
2018-May-13 14:00N 34°03' E 129°24'1017.1
2018-May-13 13:25N 34°02' E 129°12'916.2
2018-May-13 12:52N 34°02' E 129°01'716.5
2018-May-13 12:24N 34°01' E 128°52'717.0
2018-May-13 11:59N 34°01' E 128°43'1116.7
2018-May-13 11:18N 34°01' E 128°30'516.2
2018-May-13 11:00N 34°01' E 128°24'816.2
2018-May-13 10:30N 34°00' E 128°14'816.4
2018-May-13 10:00N 33°60' E 128°04'1115.9
2018-May-13 09:18N 33°60' E 127°51'  
Track history (hours):
 
Tides and Currents Weather Stations Pressure Air Temp Water Temp Dewpoint Dewpoint Depression Visibility Wind Speed Wind Dir Waves Ship Positions

Sitc Xiamen

Last reported at 2018-May-22 11:39 UTC. Time now 2018-May-22 17:41 UTC.
Position N 34°25' E 134°12'.

Length 145 m; draft 6.1 m.

Type: Ship (hazmat cat A). MMSI: 355090000.

Date/timePositionNaut miles runAvg speedWind from/ knotsBaromVisibWave heightAir tempDewpointWater temp
2018-May-22 11:39N 34°25' E 134°12'215.8
2018-May-22 11:30N 34°24' E 134°14'816.0
2018-May-22 11:00N 34°25' E 134°24'816.0
2018-May-22 10:30N 34°28' E 134°33'815.7
2018-May-22 10:00N 34°31' E 134°41'815.7
2018-May-22 09:30N 34°34' E 134°50'815.7
2018-May-22 09:00N 34°37' E 134°59'815.3
2018-May-22 08:30N 34°36' E 135°08'714.1
2018-May-22 08:00N 34°38' E 135°16'2 4.4
2018-May-22 07:30N 34°40' E 135°14'0 0.0
2018-May-22 06:58N 34°40' E 135°14'0 0.0
2018-May-22 06:28N 34°40' E 135°14'0 0.0
2018-May-22 05:58N 34°40' E 135°14'0 0.0
2018-May-22 05:28N 34°40' E 135°14'0 0.0
2018-May-22 04:58N 34°40' E 135°14'0 0.0
2018-May-22 04:22N 34°40' E 135°14'0 0.0
2018-May-22 03:58N 34°40' E 135°14'0 0.2
2018-May-22 03:30N 34°40' E 135°14'2 4.9
2018-May-22 03:00N 34°38' E 135°17'611.7
2018-May-22 02:30N 34°38' E 135°24'1 1.4
2018-May-22 02:00N 34°39' E 135°24'0 0.0
2018-May-22 01:29N 34°39' E 135°24'0 0.0
2018-May-22 00:59N 34°39' E 135°24'0 0.0
2018-May-22 00:11N 34°39' E 135°24'0 0.0
2018-May-21 23:59N 34°39' E 135°24'0 0.0
2018-May-21 23:29N 34°39' E 135°24'0 0.0
2018-May-21 22:53N 34°39' E 135°24'0 0.0
2018-May-21 22:29N 34°39' E 135°24'0 0.0
2018-May-21 21:53N 34°39' E 135°24'0 0.0
2018-May-21 21:29N 34°39' E 135°24'0 0.0
2018-May-21 20:59N 34°39' E 135°24'0 0.0
2018-May-21 20:29N 34°39' E 135°24'0 0.0
2018-May-21 19:59N 34°39' E 135°24'0 0.0
2018-May-21 19:29N 34°39' E 135°24'0 0.0
2018-May-21 18:59N 34°39' E 135°24'0 0.0
2018-May-21 18:29N 34°39' E 135°24'0 0.0
2018-May-21 17:53N 34°39' E 135°24'0 0.0
2018-May-21 17:29N 34°39' E 135°24'0 0.0
2018-May-21 16:59N 34°39' E 135°24'0 0.0
2018-May-21 16:29N 34°39' E 135°24'0 0.0
2018-May-21 15:59N 34°39' E 135°24'0 0.0
2018-May-21 15:29N 34°39' E 135°24'1 1.2
2018-May-21 15:00N 34°39' E 135°24'5 9.7
2018-May-21 14:31N 34°36' E 135°19'816.4
2018-May-21 14:01N 34°35' E 135°09'814.7
2018-May-21 13:28N 34°37' E 134°59'715.8
2018-May-21 13:00N 34°34' E 134°51'816.4
2018-May-21 12:30N 34°31' E 134°42'816.8
2018-May-21 12:01N 34°28' E 134°33'816.7
2018-May-21 11:31N 34°25' E 134°24'70013.9
2018-May-19 09:09N 36°02' E 120°15'310.1
2018-May-19 08:54N 36°00' E 120°13'1 0.9
2018-May-19 08:16N 35°60' E 120°12'0 0.1
2018-May-19 07:56N 35°60' E 120°12'0 0.0
2018-May-19 07:20N 35°60' E 120°12'0 0.0
2018-May-19 06:44N 35°60' E 120°12'0 0.0
2018-May-19 06:29N 35°60' E 120°12'0 0.0
2018-May-19 04:46N 35°60' E 120°12'0 0.0
2018-May-19 04:13N 35°60' E 120°12'0 0.0
2018-May-19 03:16N 35°60' E 120°12'0 0.0
2018-May-19 02:52N 35°60' E 120°12'0 0.0
2018-May-19 02:28N 35°60' E 120°12'0 0.0
2018-May-19 01:55N 35°60' E 120°12'0 0.0
2018-May-19 01:23N 35°60' E 120°12'0 0.0
2018-May-19 00:47N 35°60' E 120°12'0 0.0
2018-May-18 23:52N 35°60' E 120°12'0 0.0
2018-May-18 23:17N 35°60' E 120°12'0 0.1
2018-May-18 22:58N 35°60' E 120°12'2 3.1
2018-May-18 22:16N 36°01' E 120°14'410.9
2018-May-18 21:57N 36°02' E 120°19'912.6
2018-May-18 21:16N 36°00' E 120°29'  
2018-May-15 16:14N 34°24' E 133°54'512.0
2018-May-15 15:48N 34°26' E 134°01'912.9
2018-May-15 15:09N 34°25' E 134°11'214.5
2018-May-15 15:00N 34°25' E 134°13'814.9
2018-May-15 14:30N 34°25' E 134°22'815.2
2018-May-15 14:00N 34°28' E 134°31'815.6
2018-May-15 13:31N 34°31' E 134°39'816.7
2018-May-15 13:00N 34°34' E 134°48'917.4
2018-May-15 12:30N 34°37' E 134°58'816.0
2018-May-15 12:00N 34°36' E 135°08'714.1
2018-May-15 11:30N 34°38' E 135°16'2 4.8
2018-May-15 11:00N 34°40' E 135°14'0 0.0
2018-May-15 10:29N 34°40' E 135°14'0 0.0
2018-May-15 09:59N 34°40' E 135°14'0 0.0
2018-May-15 09:29N 34°40' E 135°14'0 0.0
2018-May-15 08:59N 34°40' E 135°14'0 0.0
2018-May-15 08:29N 34°40' E 135°14'0 0.0
2018-May-15 07:59N 34°40' E 135°14'0 0.0
2018-May-15 07:29N 34°40' E 135°14'0 0.0
2018-May-15 06:59N 34°40' E 135°14'0 0.0
2018-May-15 06:29N 34°40' E 135°14'0 0.0
2018-May-15 05:59N 34°40' E 135°14'0 0.0
2018-May-15 05:29N 34°40' E 135°14'0 0.0
2018-May-15 04:59N 34°40' E 135°14'0 0.0
2018-May-15 04:29N 34°40' E 135°14'0 0.3
2018-May-15 04:00N 34°40' E 135°14'2 5.0
2018-May-15 03:30N 34°38' E 135°17'510.9
2018-May-15 03:01N 34°38' E 135°23'1 2.2
2018-May-15 02:30N 34°39' E 135°24'0 0.0
2018-May-15 01:58N 34°39' E 135°24'0 0.0
2018-May-15 01:28N 34°39' E 135°24'0 0.0
2018-May-15 00:58N 34°39' E 135°24'0 0.0
2018-May-15 00:28N 34°39' E 135°24'0 0.0
2018-May-14 23:58N 34°39' E 135°24'0 0.0
2018-May-14 23:28N 34°39' E 135°24'0 0.0
2018-May-14 22:58N 34°39' E 135°24'0 0.0
2018-May-14 22:28N 34°39' E 135°24'0 0.0
2018-May-14 21:58N 34°39' E 135°24'0 0.0
2018-May-14 21:25N 34°39' E 135°24'0 0.0
2018-May-14 20:58N 34°39' E 135°24'0 0.0
2018-May-14 20:28N 34°39' E 135°24'0 0.0
2018-May-14 19:58N 34°39' E 135°24'0 0.0
2018-May-14 19:28N 34°39' E 135°24'0 0.0
2018-May-14 18:58N 34°39' E 135°24'0 0.0
2018-May-14 18:28N 34°39' E 135°24'0 0.0
2018-May-14 17:58N 34°39' E 135°24'0 0.0
2018-May-14 17:28N 34°39' E 135°24'0 0.0
2018-May-14 16:58N 34°39' E 135°24'0 0.0
2018-May-14 16:28N 34°39' E 135°24'0 0.0
2018-May-14 15:58N 34°39' E 135°24'0 0.0
2018-May-14 15:28N 34°39' E 135°24'0 0.0
2018-May-14 14:58N 34°39' E 135°24'0 0.0
2018-May-14 14:28N 34°39' E 135°24'0 0.0
2018-May-14 13:58N 34°39' E 135°24'0 0.0
2018-May-14 13:28N 34°39' E 135°24'0 0.1
2018-May-14 13:00N 34°39' E 135°24'1 2.4
2018-May-14 12:30N 34°38' E 135°23'5 9.9
2018-May-14 12:00N 34°36' E 135°18'715.0
2018-May-14 11:30N 34°35' E 135°09'713.2
2018-May-14 11:00N 34°37' E 135°01'612.9
2018-May-14 10:30N 34°35' E 134°54'612.8
2018-May-14 10:01N 34°33' E 134°47'714.3
2018-May-14 09:31N 34°30' E 134°39'815.1
2018-May-14 09:00N 34°27' E 134°30'815.1
2018-May-14 08:30N 34°24' E 134°21'8313.0
2018-May-14 02:06N 34°00' E 132°45'114.3
2018-May-14 02:00N 33°59' E 132°44'814.8
2018-May-14 01:30N 33°54' E 132°38'714.8
2018-May-14 01:00N 33°49' E 132°32'1214.8
2018-May-14 00:12N 33°44' E 132°19'314.6
2018-May-14 00:00N 33°43' E 132°15'1314.6
2018-May-13 23:08N 33°43' E 131°60'414.8
2018-May-13 22:51N 33°43' E 131°55'515.1
2018-May-13 22:30N 33°44' E 131°49'715.0
2018-May-13 22:01N 33°46' E 131°40'815.1
2018-May-13 21:31N 33°48' E 131°31'715.0
2018-May-13 21:01N 33°49' E 131°23'714.8
2018-May-13 20:31N 33°51' E 131°14'714.3
2018-May-13 20:01N 33°55' E 131°06'713.9
2018-May-13 19:30N 33°58' E 130°59'612.2
2018-May-13 19:01N 33°55' E 130°53'713.2
2018-May-13 18:30N 34°01' E 130°50'815.4
2018-May-13 18:00N 34°04' E 130°41'815.5
2018-May-13 17:30N 34°03' E 130°32'815.7
2018-May-13 17:00N 34°04' E 130°22'815.6
2018-May-13 16:30N 34°03' E 130°13'815.7
2018-May-13 16:00N 34°03' E 130°03'816.0
2018-May-13 15:30N 34°03' E 129°54'916.2
2018-May-13 14:57N 34°03' E 129°43'1116.2
2018-May-13 14:16N 34°03' E 129°29'416.4
2018-May-13 14:00N 34°03' E 129°24'1017.1
2018-May-13 13:25N 34°02' E 129°12'916.2
2018-May-13 12:52N 34°02' E 129°01'716.5
2018-May-13 12:24N 34°01' E 128°52'717.0
2018-May-13 11:59N 34°01' E 128°43'1116.7
2018-May-13 11:18N 34°01' E 128°30'516.2
2018-May-13 11:00N 34°01' E 128°24'816.2
2018-May-13 10:30N 34°00' E 128°14'816.4
2018-May-13 10:00N 33°60' E 128°04'1115.9
2018-May-13 09:18N 33°60' E 127°51'  

Dump ship's entire track history